Flight Track Log - Related Links

Times and Time Zones

All times are in EDT time to prevent confusion due to time zone crossing. See the SWA2436 flight status page for this flight to view local times or setup timezone preferences in your user account.

Time Position Orientation Groundspeed Altitude Reporting Facility
EDT Latitude Longitude Course Direction KTS MPH feet Rate Location/Type
Mon 05:09:38 PM 43.0131 -71.4519 348° North 188 216 5,400  Level Boston Center
Mon 05:10:35 PM 43.0308 -71.3581 75° East 196 226 8,700 3,362 Climbing Boston Center
Mon 05:11:34 PM 43.0444 -71.2383 81° East 283 326 11,900 3,580 Climbing Boston Center
Mon 05:12:34 PM 43.0617 -71.1158 79° East 339 390 15,800 3,450 Climbing Boston Center
Mon 05:13:34 PM 43.0597 -70.9625 91° East 363 418 18,800 3,025 Climbing Boston Center
Mon 05:14:35 PM 42.9608 -70.8911 152° Southeast 331 381 21,900 3,074 Climbing Boston Center
Mon 05:15:35 PM 42.8511 -70.9419 199° South 326 375 25,000 2,750 Climbing Boston Center
Mon 05:16:35 PM 42.7372 -71.0011 201° Southwest 371 427 27,400 2,083 Climbing Boston Center
Mon 05:17:36 PM 42.6256 -71.0575 200° South 409 471 29,200 1,900 Climbing Boston Center
Mon 05:18:35 PM 42.5114 -71.1192 202° Southwest 430 495 31,200 2,067 Climbing Boston Center
Mon 05:19:35 PM 42.4419 -71.2417 232° Southwest 410 472 33,300 1,950 Climbing Boston Center
Mon 05:20:35 PM 42.3808 -71.3692 237° Southwest 407 468 35,100 1,934 Climbing Boston Center
Mon 05:21:36 PM 42.3297 -71.4881 240° Southwest 407 468 37,200 1,934 Climbing Boston Center
Mon 05:22:36 PM 42.2578 -71.6211 234° Southwest 412 474 39,000 1,424 Climbing Boston Center
Mon 05:23:34 PM 42.1981 -71.7422 236° Southwest 407 468 40,000 504 Climbing Boston Center
Mon 05:24:35 PM 42.1383 -71.8689 238° Southwest 402 463 40,000  Level Boston Center
Mon 05:25:35 PM 42.0764 -71.9925 236° Southwest 402 463 40,000  Level Boston Center
Mon 05:26:35 PM 42.0164 -72.1158 237° Southwest 402 463 40,000  Level Boston Center
Mon 05:27:36 PM 41.9606 -72.2364 238° Southwest 396 456 40,000  Level Boston Center
Mon 05:28:36 PM 41.8981 -72.3592 236° Southwest 396 456 40,000  Level Boston Center
Mon 05:29:37 PM 41.8378 -72.4792 236° Southwest 396 456 40,000  Level Boston Center
Mon 05:30:34 PM 41.7792 -72.5986 237° Southwest 396 456 40,000  Level Boston Center
Mon 05:31:35 PM 41.7186 -72.7181 236° Southwest 396 456 40,000  Level Boston Center
Mon 05:32:36 PM 41.6597 -72.8403 237° Southwest 396 456 40,000  Level Boston Center
Mon 05:33:34 PM 41.5989 -72.9564 235° Southwest 396 456 40,000  Level Boston Center
Mon 05:34:34 PM 41.5400 -73.0781 237° Southwest 396 456 40,000  Level Boston Center
Mon 05:35:34 PM 41.4914 -73.1772 237° Southwest 390 449 40,000  Level Boston Center
Mon 05:36:35 PM 41.4281 -73.2983 235° Southwest 390 449 40,000  Level Boston Center
Mon 05:37:35 PM 41.3686 -73.4164 236° Southwest 395 455 40,000  Level Boston Center
Mon 05:40:05 PM 41.1997 -73.7217 234° Southwest 398 458 40,000  Level New York Center
Mon 05:41:06 PM 41.1322 -73.8372 232° Southwest 406 467 40,000  Level New York Center
Mon 05:42:04 PM 41.0647 -73.9497 232° Southwest 401 461 40,000  Level New York Center
Mon 05:43:04 PM 40.9992 -74.0619 232° Southwest 401 461 40,000  Level New York Center
Mon 05:44:04 PM 40.9314 -74.1714 231° Southwest 401 461 40,000  Level New York Center
Mon 05:45:04 PM 40.8700 -74.2725 231° Southwest 396 456 40,000  Level New York Center
Mon 05:46:05 PM 40.8022 -74.3814 231° Southwest 391 450 40,000  Level New York Center
Mon 05:47:05 PM 40.7319 -74.4981 232° Southwest 391 450 40,000  Level New York Center
Mon 05:48:06 PM 40.6617 -74.6119 231° Southwest 396 456 40,000  Level New York Center
Mon 05:49:06 PM 40.5911 -74.7283 231° Southwest 402 463 40,000  Level New York Center
Mon 05:50:05 PM 40.5144 -74.8386 228° Southwest 408 470 40,000  Level New York Center
Mon 05:51:05 PM 40.4378 -74.9486 228° Southwest 408 470 40,000  Level New York Center
Mon 05:52:05 PM 40.3631 -75.0531 227° Southwest 408 470 40,000  Level New York Center
Mon 05:53:06 PM 40.2883 -75.1572 227° Southwest 402 463 40,000  Level New York Center
Mon 05:54:06 PM 40.2133 -75.2667 228° Southwest 402 463 40,000  Level New York Center
Mon 05:55:05 PM 40.1364 -75.3731 227° Southwest 402 463 40,000  Level New York Center
Mon 05:56:06 PM 40.0592 -75.4817 227° Southwest 407 468 40,000  Level New York Center
Mon 05:57:04 PM 39.9817 -75.5875 226° Southwest 407 468 40,000  Level New York Center
Mon 05:58:05 PM 39.9064 -75.6961 228° Southwest 407 468 40,000  Level New York Center
Mon 06:00:02 PM 39.7694 -75.9156 231° Southwest 381 438 40,000  Level Washington Center
Mon 06:01:01 PM 39.6942 -76.0256 228° Southwest 393 452 40,000  Level Washington Center
Mon 06:02:01 PM 39.6292 -76.1358 233° Southwest 400 460 40,000  Level Washington Center
Mon 06:03:01 PM 39.5578 -76.2483 231° Southwest 400 460 40,000  Level Washington Center
Mon 06:04:01 PM 39.4819 -76.3606 229° Southwest 400 460 40,000  Level Washington Center
Mon 06:05:01 PM 39.4103 -76.4700 230° Southwest 405 466 40,000  Level Washington Center
Mon 06:06:02 PM 39.3428 -76.5844 233° Southwest 405 466 40,000  Level Washington Center
Mon 06:07:01 PM 39.2689 -76.6961 230° Southwest 405 466 40,000  Level Washington Center
Mon 06:08:01 PM 39.1969 -76.8075 230° Southwest 405 466 40,000  Level Washington Center
Mon 06:09:02 PM 39.1250 -76.9186 230° Southwest 405 466 40,000  Level Washington Center
Mon 06:10:02 PM 39.0508 -77.0297 229° Southwest 405 466 40,000  Level Washington Center
Mon 06:11:02 PM 38.9639 -77.1294 222° Southwest 410 472 40,000  Level Washington Center
Mon 06:12:02 PM 38.8794 -77.2208 220° Southwest 410 472 40,000  Level Washington Center
Mon 06:13:01 PM 38.7842 -77.3253 221° Southwest 410 472 40,000  Level Washington Center
Mon 06:14:02 PM 38.6953 -77.4164 219° Southwest 410 472 40,000  Level Washington Center
Mon 06:15:02 PM 38.6083 -77.5100 220° Southwest 410 472 40,000  Level Washington Center
Mon 06:16:02 PM 38.5256 -77.6033 221° Southwest 410 472 40,000  Level Washington Center
Mon 06:17:01 PM 38.4383 -77.6964 220° Southwest 410 472 40,000  Level Washington Center
Mon 06:18:02 PM 38.3533 -77.7892 221° Southwest 410 472 40,000  Level Washington Center
Mon 06:19:01 PM 38.2661 -77.8819 220° Southwest 410 472 40,000  Level Washington Center
Mon 06:20:01 PM 38.1808 -77.9744 220° Southwest 410 472 40,000  Level Washington Center
Mon 06:21:02 PM 38.0936 -78.0667 220° Southwest 410 472 40,000  Level Washington Center
Mon 06:22:01 PM 38.0061 -78.1639 221° Southwest 410 472 40,000  Level Washington Center
Mon 06:23:01 PM 37.9272 -78.2403 217° Southwest 410 472 40,000  Level Washington Center
Mon 06:24:01 PM 37.8269 -78.3367 217° Southwest 410 472 40,000  Level Washington Center
Mon 06:25:02 PM 37.7353 -78.4225 217° Southwest 410 472 40,000  Level Washington Center
Mon 06:26:02 PM 37.6436 -78.5083 217° Southwest 415 478 40,000  Level Washington Center
Mon 06:27:01 PM 37.5517 -78.5939 216° Southwest 415 478 40,000  Level Washington Center
Mon 06:28:02 PM 37.4683 -78.6717 217° Southwest 420 483 40,000  Level Washington Center
Mon 06:29:01 PM 37.3786 -78.7542 216° Southwest 415 478 40,000  Level Washington Center
Mon 06:30:01 PM 37.2844 -78.8417 216° Southwest 415 478 40,000  Level Washington Center
Mon 06:31:02 PM 37.1903 -78.9289 216° Southwest 415 478 40,000  Level Washington Center
Mon 06:32:01 PM 37.1003 -79.0136 217° Southwest 415 478 40,000  Level Washington Center
Mon 06:33:01 PM 36.9975 -79.1053 215° Southwest 420 483 40,000  Level Washington Center
Mon 06:34:01 PM 36.9031 -79.1919 216° Southwest 420 483 40,000  Level Washington Center
Mon 06:35:01 PM 36.7989 -79.2569 207° Southwest 425 489 40,000  Level Washington Center
Mon 06:36:02 PM 36.6947 -79.3222 207° Southwest 425 489 40,000  Level Washington Center
Mon 06:37:01 PM 36.6008 -79.3850 208° Southwest 425 489 40,000  Level Washington Center
Mon 06:38:01 PM 36.4986 -79.4497 207° Southwest 419 482 40,000  Level Washington Center
Mon 06:39:01 PM 36.3922 -79.5142 206° Southwest 419 482 40,000  Level Washington Center
Mon 06:41:30 PM 36.1269 -79.6789 207° Southwest 430 495 40,000  Level Atlanta Center
Mon 06:42:30 PM 36.0331 -79.7378 207° Southwest 430 495 40,000  Level Atlanta Center
Mon 06:43:30 PM 35.9289 -79.8025 207° Southwest 425 489 40,000  Level Atlanta Center
Mon 06:44:30 PM 35.8244 -79.8642 206° Southwest 420 483 40,000  Level Atlanta Center
Mon 06:45:30 PM 35.7225 -79.9281 207° Southwest 420 483 40,000  Level Atlanta Center
Mon 06:46:30 PM 35.6183 -79.9947 207° Southwest 420 483 40,000  Level Atlanta Center
Mon 06:47:30 PM 35.5161 -80.0611 208° Southwest 420 483 40,000  Level Atlanta Center
Mon 06:48:30 PM 35.4078 -80.1275 207° Southwest 420 483 40,000  Level Atlanta Center
Mon 06:49:30 PM 35.2950 -80.1939 206° Southwest 420 483 40,000  Level Atlanta Center
Mon 06:50:30 PM 35.1928 -80.2569 207° Southwest 413 475 40,000  Level Atlanta Center
Mon 06:52:04 PM 35.0333 -80.3550 207° Southwest 405 466 40,000  Level Jacksonville Center
Mon 06:53:04 PM 34.9386 -80.4133 207° Southwest 411 473 40,000  Level Jacksonville Center
Mon 06:54:04 PM 34.8250 -80.4775 205° Southwest 416 479 40,000  Level Jacksonville Center
Mon 06:55:04 PM 34.7367 -80.5381 209° Southwest 416 479 40,000  Level Jacksonville Center
Mon 06:56:04 PM 34.6356 -80.5964 205° Southwest 411 473 40,000  Level Jacksonville Center
Mon 06:57:04 PM 34.5300 -80.6572 205° Southwest 411 473 40,000  Level Jacksonville Center
Mon 06:58:04 PM 34.4139 -80.6828 190° South 417 480 40,000  Level Jacksonville Center
Mon 06:59:04 PM 34.2889 -80.7061 189° South 429 494 40,000  Level Jacksonville Center
Mon 07:00:04 PM 34.1725 -80.7239 187° South 434 499 40,000  Level Jacksonville Center
Mon 07:01:04 PM 34.0519 -80.7444 188° South 439 505 40,000  Level Jacksonville Center
Mon 07:02:04 PM 33.9333 -80.7625 187° South 439 505 40,000  Level Jacksonville Center
Mon 07:03:04 PM 33.8125 -80.7828 188° South 444 511 40,000  Level Jacksonville Center
Mon 07:04:04 PM 33.6939 -80.8033 188° South 444 511 40,000  Level Jacksonville Center
Mon 07:05:04 PM 33.5733 -80.8236 188° South 444 511 40,000  Level Jacksonville Center
Mon 07:06:04 PM 33.4544 -80.8411 187° South 439 505 40,000  Level Jacksonville Center
Mon 07:07:03 PM 33.3317 -80.8589 187° South 444 511 40,000  Level Jacksonville Center
Mon 07:08:04 PM 33.2131 -80.8814 189° South 444 511 40,000  Level Jacksonville Center
Mon 07:09:04 PM 33.0964 -80.8989 187° South 444 511 40,000  Level Jacksonville Center
Mon 07:10:04 PM 32.9756 -80.9167 187° South 444 511 40,000  Level Jacksonville Center
Mon 07:11:04 PM 32.8569 -80.9342 187° South 444 511 40,000  Level Jacksonville Center
Mon 07:12:04 PM 32.7383 -80.9539 188° South 444 511 40,000  Level Jacksonville Center
Mon 07:13:04 PM 32.6197 -80.9761 189° South 444 511 40,000  Level Jacksonville Center
Mon 07:14:04 PM 32.5008 -80.9908 186° South 444 511 40,000  Level Jacksonville Center
Mon 07:15:04 PM 32.3739 -81.0133 189° South 428 493 40,000  Level Jacksonville Center
Mon 07:16:04 PM 32.2572 -81.0303 187° South 424 488 40,000  Level Jacksonville Center
Mon 07:17:04 PM 32.1531 -81.0447 187° South 433 498 40,000  Level Jacksonville Center
Mon 07:18:04 PM 32.0217 -81.0622 186° South 433 498 40,000  Level Jacksonville Center
Mon 07:19:04 PM 31.9156 -81.0839 190° South 433 498 40,000  Level Jacksonville Center
Mon 07:20:04 PM 31.8011 -81.1008 187° South 420 483 40,000  Level Jacksonville Center
Mon 07:21:04 PM 31.6739 -81.1203 187° South 426 490 40,000  Level Jacksonville Center
Mon 07:22:04 PM 31.5550 -81.1275 183° South 431 496 40,000  Level Jacksonville Center
Mon 07:23:04 PM 31.4486 -81.1269 180° South 426 490 40,000  Level Jacksonville Center
Mon 07:24:04 PM 31.3150 -81.1272 180° South 431 496 40,000  Level Jacksonville Center
Mon 07:25:04 PM 31.1958 -81.1269 180° South 436 502 40,000 -250 Level Jacksonville Center
Mon 07:26:04 PM 31.0747 -81.1267 180° South 436 502 39,500 -1,000 Descending Jacksonville Center
Mon 07:27:04 PM 30.9536 -81.1267 180° South 442 509 38,000 -1,450 Descending Jacksonville Center
Mon 07:28:04 PM 30.8306 -81.1217 178° South 442 509 36,600 -1,550 Descending Jacksonville Center
Mon 07:29:04 PM 30.7072 -81.1217 180° South 442 509 34,900 -2,800 Descending Jacksonville Center
Mon 07:30:04 PM 30.5800 -81.1239 181° South 447 514 31,000 -2,500 Descending Jacksonville Center
Mon 07:31:04 PM 30.4483 -81.1214 179° South 462 532 29,900 -500 Descending Jacksonville Center
Mon 07:32:04 PM 30.3231 -81.1214 180° South 462 532 30,000 50 Climbing Jacksonville Center
Mon 07:33:04 PM 30.1936 -81.1189 179° South 462 532 30,000  Level Jacksonville Center
Mon 07:34:04 PM 30.0664 -81.1189 180° South 462 532 30,000  Level Jacksonville Center
Mon 07:35:04 PM 29.9369 -81.1167 179° South 462 532 30,000 -500 Level Jacksonville Center
Mon 07:36:04 PM 29.8094 -81.1189 181° South 462 532 29,000 -1,850 Descending Jacksonville Center
Mon 07:37:04 PM 29.6864 -81.1164 179° South 457 526 26,300 -2,750 Descending Jacksonville Center
Mon 07:38:04 PM 29.5672 -81.1186 181° South 445 512 23,500 -2,650 Descending Jacksonville Center
Mon 07:39:04 PM 29.4525 -81.1181 180° South 428 493 21,000 -2,500 Descending Jacksonville Center
Mon 07:40:04 PM 29.3419 -81.1153 179° South 416 479 18,500 -2,577 Descending Jacksonville Center
Mon 07:41:40 PM 29.1667 -81.1000 176° South 379 436 14,300 -2,500 Descending Orlando TRACON
Mon 07:42:04 PM 29.1286 -81.1003 180° South 392 451 13,500 -1,571 Descending Jacksonville Center
Mon 07:43:04 PM 29.0325 -81.0925 176° South 379 436 12,100 -1,250 Descending Jacksonville Center
Mon 07:44:04 PM 28.9447 -81.0822 174° South 345 397 11,000 -1,300 Descending Jacksonville Center
Mon 07:45:04 PM 28.8631 -81.0669 171° South 320 368 9,500 -1,533 Descending Jacksonville Center
Mon 07:45:34 PM 28.8167 -81.0500 162° South 293 337 8,700 -933 Descending Orlando TRACON
Mon 07:46:34 PM 28.7833 -81.1167 240° Southwest 253 291 8,100 -800 Descending Orlando TRACON
Mon 07:47:34 PM 28.7500 -81.1833 240° Southwest 242 278 7,100 -1,100 Descending Orlando TRACON
Mon 07:48:34 PM 28.7000 -81.2333 221° Southwest 237 273 5,900 -1,143 Descending Orlando TRACON
Mon 07:49:40 PM 28.6333 -81.2667 204° Southwest 232 267 4,700 -1,300 Descending Orlando TRACON
Mon 07:50:34 PM 28.5833 -81.2833 196° South 200 230 3,300 -1,333 Descending Orlando TRACON
Mon 07:51:46 PM 28.5333 -81.3000 196° South 177 204 1,900 -1,000 Descending Orlando TRACON
Mon 07:52:46 PM 28.4833 -81.3000 180° South 149 171 1,100 -700 Descending Orlando TRACON
Mon 07:53:46 PM 28.4500 -81.3000 180° South 117 135 500 -600 Descending Orlando TRACON
Mon 07:55:00 PM 28.4294 -81.3090 186° South  Level Estimated
Mon 08:02:00 PM 28.4294 -81.3090 186° South  Level Estimated
Mon 08:03:00 PM 28.4294 -81.3090 186° South  Level Estimated
Mon 08:04:00 PM 28.4294 -81.3090 186° South  Level Estimated
Mon 08:05:00 PM 28.4294 -81.3090 186° South  Level Estimated

Login

Don't have an account? Register now (free) for customized features, flight alerts, and more!